createdAt,value
2017-09-30T11:47:28.576Z,20.20
2017-09-30T11:49:57.535Z,19.58
2017-09-30T11:52:26.195Z,19.53
2017-09-30T11:54:54.776Z,19.88
2017-09-30T11:57:24.023Z,19.60
2017-09-30T11:59:53.222Z,20.00
2017-09-30T12:02:22.309Z,20.15
2017-09-30T12:04:50.937Z,20.03
2017-09-30T12:07:19.803Z,19.88
2017-09-30T12:09:48.461Z,19.92
2017-09-30T12:12:16.980Z,20.31
2017-09-30T12:14:45.568Z,20.02
2017-09-30T12:17:14.073Z,19.82
2017-09-30T12:19:45.571Z,19.74
2017-09-30T12:22:29.319Z,19.70
2017-09-30T12:24:57.939Z,19.63
2017-09-30T12:27:27.833Z,19.96
2017-09-30T12:29:56.587Z,19.87
2017-09-30T12:32:25.094Z,19.95
2017-09-30T12:34:53.628Z,20.09
2017-09-30T12:37:22.496Z,20.17
2017-09-30T12:39:51.989Z,20.20
2017-09-30T12:42:21.770Z,20.36
2017-09-30T12:44:51.200Z,20.81
2017-09-30T12:47:20.007Z,20.99
2017-09-30T12:49:48.506Z,20.99
2017-09-30T12:52:17.161Z,20.54
2017-09-30T12:54:45.764Z,20.39
2017-09-30T12:57:14.347Z,20.29
2017-09-30T12:59:43.035Z,20.24
2017-09-30T13:02:11.704Z,20.16
2017-09-30T13:04:41.654Z,20.02
2017-09-30T13:07:10.251Z,20.18
2017-09-30T13:09:42.310Z,19.97
2017-09-30T13:12:11.506Z,19.79
2017-09-30T13:14:40.173Z,20.16
2017-09-30T13:17:12.743Z,20.47
2017-09-30T13:19:41.990Z,19.99
2017-09-30T13:22:13.629Z,20.02
2017-09-30T13:24:43.704Z,19.88
2017-09-30T13:27:12.690Z,20.14
2017-09-30T13:29:41.423Z,20.05
2017-09-30T13:32:11.585Z,20.07
2017-09-30T13:34:41.404Z,20.35
2017-09-30T13:37:10.688Z,20.08
2017-09-30T13:39:39.505Z,20.15
2017-09-30T13:42:08.526Z,20.02
2017-09-30T13:44:37.115Z,20.24
2017-09-30T13:47:05.727Z,20.14
2017-09-30T13:49:34.324Z,20.10
2017-09-30T13:52:02.898Z,19.88
2017-09-30T13:54:31.521Z,19.83
2017-09-30T13:57:00.049Z,20.06
2017-09-30T13:59:28.725Z,19.95
2017-09-30T14:01:57.342Z,19.89
2017-09-30T14:04:25.842Z,20.00
2017-09-30T14:06:54.468Z,20.02
2017-09-30T14:09:22.927Z,20.21
2017-09-30T14:11:51.472Z,19.95
2017-09-30T14:14:19.990Z,20.18
2017-09-30T14:16:48.519Z,20.43
2017-09-30T14:19:16.996Z,20.25
2017-09-30T14:21:45.568Z,20.08
2017-09-30T14:24:14.106Z,19.87
2017-09-30T14:26:42.899Z,19.79
2017-09-30T14:29:11.618Z,19.72
2017-09-30T14:31:40.626Z,19.80
2017-09-30T14:34:09.149Z,19.92
2017-09-30T14:36:37.860Z,20.19
2017-09-30T14:39:06.390Z,19.91
2017-09-30T14:41:34.900Z,19.79
2017-09-30T14:44:03.495Z,20.02
2017-09-30T14:46:32.065Z,19.80
2017-09-30T14:49:00.697Z,19.91
2017-09-30T14:51:29.279Z,19.87
2017-09-30T14:53:57.763Z,19.98
2017-09-30T14:56:26.235Z,19.84
2017-09-30T14:58:54.712Z,19.91
2017-09-30T15:01:23.505Z,19.69
2017-09-30T15:03:51.995Z,19.63
2017-09-30T15:06:20.590Z,19.62
2017-09-30T15:08:49.067Z,19.66
2017-09-30T15:11:17.541Z,19.54
2017-09-30T15:13:46.009Z,19.56
2017-09-30T15:16:14.604Z,19.38
2017-09-30T15:18:43.474Z,19.35
2017-09-30T15:21:12.624Z,19.25
2017-09-30T15:23:41.591Z,19.36
2017-09-30T15:26:10.700Z,19.36
2017-09-30T15:28:39.530Z,19.38
2017-09-30T15:31:08.472Z,19.38
2017-09-30T15:33:38.218Z,19.55
2017-09-30T15:36:06.864Z,19.44
2017-09-30T15:38:36.051Z,19.34
2017-09-30T15:41:05.849Z,19.41
2017-09-30T15:43:34.840Z,19.39
2017-09-30T15:46:04.693Z,19.27
2017-09-30T15:48:34.575Z,19.11
2017-09-30T15:51:04.726Z,19.21
2017-09-30T15:53:34.142Z,19.14
2017-09-30T15:56:14.605Z,19.11
2017-09-30T15:58:47.204Z,19.04
2017-09-30T16:01:16.404Z,19.01
2017-09-30T16:03:45.348Z,18.84
2017-09-30T16:06:37.948Z,18.90
2017-09-30T16:09:06.655Z,18.92
2017-09-30T16:11:35.311Z,18.80
2017-09-30T16:14:05.049Z,18.74
2017-09-30T16:16:34.372Z,18.64
2017-09-30T16:19:03.530Z,18.70
2017-09-30T16:21:32.486Z,18.54
2017-09-30T16:24:01.242Z,18.42
2017-09-30T16:26:38.221Z,18.30
2017-09-30T16:29:07.557Z,18.40
2017-09-30T16:31:38.455Z,18.27
2017-09-30T16:34:07.526Z,18.20
2017-09-30T16:36:36.408Z,18.14
2017-09-30T16:39:05.308Z,18.08
2017-09-30T16:41:34.001Z,18.15
2017-09-30T16:44:03.811Z,18.05
2017-09-30T16:46:33.119Z,17.96
2017-09-30T16:49:01.812Z,17.88
2017-09-30T16:51:30.431Z,17.82
2017-09-30T16:53:59.219Z,17.78
2017-09-30T16:59:15.707Z,17.70
2017-09-30T17:01:48.713Z,17.74
2017-09-30T17:04:17.725Z,17.73
2017-09-30T17:06:47.164Z,17.65
2017-09-30T17:09:16.368Z,17.59
2017-09-30T17:11:49.934Z,17.58
2017-09-30T17:14:20.836Z,17.53
2017-09-30T17:16:52.107Z,17.40
2017-09-30T17:19:20.776Z,17.36
2017-09-30T17:21:49.571Z,17.53
2017-09-30T17:27:13.451Z,17.35
2017-09-30T17:29:42.356Z,17.39
2017-09-30T17:32:10.979Z,17.20
2017-09-30T17:34:39.617Z,17.17
2017-09-30T17:37:08.821Z,17.05
2017-09-30T17:42:28.700Z,17.00
2017-09-30T17:44:58.895Z,16.94
2017-09-30T17:47:27.708Z,16.93
2017-09-30T17:49:56.535Z,16.98
2017-09-30T17:52:25.407Z,16.86
2017-09-30T17:54:56.833Z,16.95
2017-09-30T17:57:38.021Z,16.84
2017-09-30T18:00:12.220Z,16.71
2017-09-30T18:02:42.660Z,16.67
2017-09-30T18:05:19.551Z,16.64
2017-09-30T18:07:48.588Z,16.67
2017-09-30T18:10:27.972Z,16.62
2017-09-30T18:13:10.678Z,16.52
2017-09-30T18:15:42.425Z,16.52
2017-09-30T18:18:11.928Z,16.54
2017-09-30T18:20:42.862Z,16.56
2017-09-30T18:23:15.820Z,16.50
2017-09-30T18:25:52.433Z,16.57
2017-09-30T18:28:31.783Z,16.36
2017-09-30T18:31:03.402Z,16.42
2017-09-30T18:33:32.175Z,16.36
2017-09-30T18:36:01.592Z,16.49
2017-09-30T18:38:34.542Z,16.24
2017-09-30T18:41:03.564Z,16.24
2017-09-30T18:43:32.664Z,16.29
2017-09-30T18:46:04.881Z,16.15
2017-09-30T18:48:33.739Z,16.14
2017-09-30T18:51:02.407Z,16.10
2017-09-30T18:53:30.952Z,16.22
2017-09-30T18:56:07.869Z,16.18
2017-09-30T18:58:42.207Z,16.04
2017-09-30T19:01:20.222Z,15.97
2017-09-30T19:03:52.708Z,16.04
2017-09-30T19:06:22.227Z,16.20
2017-09-30T19:08:50.767Z,16.08
2017-09-30T19:11:19.816Z,15.92
2017-09-30T19:13:48.300Z,15.85
2017-09-30T19:16:17.242Z,15.74
2017-09-30T19:18:46.191Z,15.71
2017-09-30T19:21:15.576Z,15.62
2017-09-30T19:23:44.076Z,15.53
2017-09-30T19:26:12.694Z,15.58
2017-09-30T19:28:41.328Z,15.51
2017-09-30T19:31:09.914Z,15.41
2017-09-30T19:33:38.403Z,15.37
2017-09-30T19:36:07.045Z,15.40
2017-09-30T19:38:35.888Z,15.31
2017-09-30T19:41:04.805Z,15.22
2017-09-30T19:43:33.504Z,15.16
2017-09-30T19:46:02.124Z,15.26
2017-09-30T19:48:30.706Z,15.21
2017-09-30T19:50:59.328Z,15.02
2017-09-30T19:53:27.931Z,15.06
2017-09-30T19:55:56.704Z,15.03
2017-09-30T19:58:25.349Z,15.00
2017-09-30T20:01:45.988Z,14.93
2017-09-30T20:05:18.579Z,14.93
2017-09-30T20:08:03.808Z,14.91
2017-09-30T20:10:32.765Z,14.83
2017-09-30T20:13:02.448Z,14.81
2017-09-30T20:15:36.240Z,14.81
2017-09-30T20:21:22.528Z,14.93
2017-09-30T20:23:52.246Z,14.72
2017-09-30T20:26:22.578Z,14.69
2017-09-30T20:28:55.044Z,14.79
2017-09-30T20:31:25.188Z,14.81
2017-09-30T20:33:54.606Z,14.77
2017-09-30T20:36:29.621Z,14.90
2017-09-30T20:38:58.676Z,14.72
2017-09-30T20:41:28.739Z,14.64
2017-09-30T20:44:00.047Z,14.48
2017-09-30T20:46:41.453Z,14.55
2017-09-30T20:49:17.757Z,14.73
2017-09-30T21:08:41.059Z,14.52
2017-09-30T21:11:41.079Z,14.57
2017-09-30T21:14:09.887Z,14.53
2017-09-30T21:16:38.532Z,14.56
2017-09-30T21:19:07.081Z,14.75
2017-09-30T21:21:35.670Z,14.57
2017-09-30T21:24:04.153Z,14.44
2017-09-30T21:26:32.756Z,14.44
2017-09-30T21:29:01.963Z,14.58
2017-09-30T21:31:31.168Z,14.69
2017-09-30T21:33:59.722Z,14.60
2017-09-30T21:36:28.267Z,14.54
2017-09-30T21:38:57.309Z,14.63
2017-09-30T21:41:25.815Z,14.70
2017-09-30T21:43:54.324Z,14.69
2017-09-30T21:46:23.225Z,14.56
2017-09-30T21:48:51.757Z,14.51
2017-09-30T21:51:20.275Z,14.46
2017-09-30T21:53:48.817Z,14.40
2017-09-30T21:56:17.399Z,14.51
2017-09-30T21:58:46.747Z,14.43
2017-09-30T22:01:15.432Z,14.37
2017-09-30T22:03:44.055Z,14.39
2017-09-30T22:06:12.553Z,14.40
2017-09-30T22:08:41.024Z,14.33
2017-09-30T22:11:09.507Z,14.42
2017-09-30T22:13:38.019Z,14.43
2017-09-30T22:16:06.694Z,14.44
2017-09-30T22:18:35.365Z,14.29
2017-09-30T22:21:03.849Z,14.40
2017-09-30T22:23:32.370Z,14.36
2017-09-30T22:26:00.904Z,14.45
2017-09-30T22:28:29.476Z,14.39
2017-09-30T22:30:58.957Z,14.33
2017-09-30T22:33:27.627Z,14.38
2017-09-30T22:35:56.343Z,14.39
2017-09-30T22:38:25.035Z,14.20
2017-09-30T22:40:53.768Z,14.30
2017-09-30T22:43:22.757Z,14.31
2017-09-30T22:45:51.488Z,14.30
2017-09-30T22:48:20.283Z,14.20
2017-09-30T22:50:48.878Z,14.16
2017-09-30T22:53:17.400Z,14.34
2017-09-30T22:55:45.934Z,14.18
2017-09-30T22:58:14.419Z,14.11
2017-09-30T23:00:43.338Z,14.16
2017-09-30T23:03:12.072Z,14.23
2017-09-30T23:05:40.832Z,14.23
2017-09-30T23:08:09.381Z,14.35
2017-09-30T23:10:37.903Z,14.36
2017-09-30T23:13:06.500Z,14.46
2017-09-30T23:15:35.796Z,14.36
2017-09-30T23:18:04.504Z,14.18
2017-09-30T23:20:33.047Z,14.20
2017-09-30T23:23:01.561Z,14.24
2017-09-30T23:25:30.178Z,14.15
2017-09-30T23:27:58.662Z,14.20
2017-09-30T23:30:27.698Z,14.27
2017-09-30T23:32:56.324Z,14.12
2017-09-30T23:35:24.920Z,14.17
2017-09-30T23:37:53.504Z,14.14
2017-09-30T23:40:22.034Z,14.06
2017-09-30T23:42:53.567Z,14.29
2017-09-30T23:45:22.817Z,14.38
2017-09-30T23:47:51.367Z,14.15
2017-09-30T23:50:19.975Z,14.33
2017-09-30T23:52:48.560Z,14.46
2017-09-30T23:55:17.148Z,14.13
2017-09-30T23:57:45.798Z,14.07
